Time;durP1;ratioP1;P1;durP2;ratioP2;P2;SDS_P1;SDS_P2;PMS_P1;PMS_P2;Temp;Humidity;BMP_temperature;BMP_pressure;BME280_temperature;BME280_humidity;BME280_pressure;Samples;Min_cycle;Max_cycle;Signal;HPM_P1;HPM_P2
2022/04/29 00:01:02;;;;;;;7.70;5.13;;;;;;;9.04;64.49;99585.03;5031894;28;20190;-51
2022/04/29 00:03:30;;;;;;;8.17;5.23;;;;;;;9.12;65.95;99591.31;5031679;28;20214;-50
2022/04/29 00:05:57;;;;;;;7.17;4.57;;;;;;;9.12;64.12;99585.28;5031810;28;20181;-50
2022/04/29 00:08:24;;;;;;;7.27;4.50;;;;;;;9.16;64.38;99586.69;5032032;28;20196;-50
2022/04/29 00:10:52;;;;;;;7.37;4.77;;;;;;;9.21;64.28;99587.19;5032494;28;20277;-51
2022/04/29 00:13:19;;;;;;;6.37;4.60;;;;;;;9.21;65.24;99587.19;5030574;28;20192;-50
2022/04/29 00:15:48;;;;;;;5.03;3.80;;;;;;;9.16;64.79;99581.50;5031847;28;20211;-49
2022/04/29 00:18:15;;;;;;;6.87;4.83;;;;;;;9.20;64.25;99585.53;5031759;28;20271;-52
2022/04/29 00:20:43;;;;;;;8.20;5.10;;;;;;;9.15;64.08;99585.84;5031829;28;20187;-50
2022/04/29 00:23:10;;;;;;;8.27;5.10;;;;;;;9.11;64.71;99586.22;5032005;28;20233;-50
2022/04/29 00:25:38;;;;;;;8.40;4.37;;;;;;;9.04;65.58;99587.63;5033998;28;20225;-50
2022/04/29 00:28:06;;;;;;;7.40;4.20;;;;;;;8.96;65.50;99575.22;5035851;28;20223;-49
2022/04/29 00:30:34;;;;;;;5.70;4.47;;;;;;;9.12;65.71;99578.28;5035906;28;20276;-51
2022/04/29 00:33:03;;;;;;;6.03;4.63;;;;;;;9.14;64.50;99565.16;5034586;28;20196;-50
2022/04/29 00:35:31;;;;;;;8.67;5.80;;;;;;;9.18;64.02;99561.38;5035294;28;20211;-51
2022/04/29 00:37:59;;;;;;;8.70;4.80;;;;;;;9.15;64.83;99569.41;5034457;28;20198;-50
2022/04/29 00:40:28;;;;;;;9.57;4.50;;;;;;;9.11;66.34;99568.81;5035816;28;20265;-50
2022/04/29 00:42:56;;;;;;;10.03;4.77;;;;;;;9.08;65.46;99565.63;5035169;28;20192;-51
2022/04/29 00:45:25;;;;;;;5.73;4.57;;;;;;;8.96;65.72;99568.22;5034761;28;20265;-50
2022/04/29 00:47:53;;;;;;;5.00;4.40;;;;;;;8.92;66.40;99558.16;5033585;28;20218;-50
2022/04/29 00:50:24;;;;;;;6.10;4.40;;;;;;;8.90;68.35;99555.66;5033487;28;20208;-52
2022/04/29 00:52:52;;;;;;;8.20;4.60;;;;;;;8.90;68.07;99560.06;5034926;28;20272;-50
2022/04/29 00:55:22;;;;;;;5.80;4.57;;;;;;;8.86;69.91;99557.69;5033079;28;20220;-51
2022/04/29 00:57:51;;;;;;;6.73;4.23;;;;;;;8.72;69.15;99557.91;5034783;28;20190;-50
2022/04/29 01:00:19;;;;;;;5.63;4.33;;;;;;;8.68;69.44;99552.06;5031118;28;20203;-50
2022/04/29 01:02:50;;;;;;;6.30;4.40;;;;;;;8.77;68.22;99553.16;5030083;28;20265;-52
2022/04/29 01:05:19;;;;;;;5.67;4.37;;;;;;;8.80;67.86;99552.09;5032084;28;20345;-50
2022/04/29 01:07:48;;;;;;;6.60;4.23;;;;;;;8.84;68.45;99546.56;5036769;28;20238;-51
2022/04/29 01:10:20;;;;;;;4.60;4.20;;;;;;;8.75;69.82;99556.81;5034221;28;20188;-50
2022/04/29 01:12:50;;;;;;;6.63;4.47;;;;;;;8.68;70.23;99546.88;5049724;28;20197;-51
2022/04/29 01:15:18;;;;;;;7.30;4.70;;;;;;;8.71;69.70;99551.03;5030166;28;20218;-51
2022/04/29 01:17:49;;;;;;;6.23;4.30;;;;;;;8.76;72.31;99541.09;5029228;28;20289;-50
2022/04/29 01:20:19;;;;;;;5.27;4.00;;;;;;;8.67;71.02;99549.59;5033688;28;20226;-51
2022/04/29 01:22:48;;;;;;;7.80;4.00;;;;;;;8.69;70.33;99550.31;5022075;28;20287;-50
2022/04/29 01:25:15;;;;;;;4.67;3.77;;;;;;;8.89;68.87;99553.19;5042637;28;20265;-51
2022/04/29 01:27:50;;;;;;;6.60;4.70;;;;;;;8.81;69.88;99545.94;5029547;28;20558;-50
2022/04/29 01:30:18;;;;;;;7.00;4.50;;;;;;;8.71;68.87;99536.22;5029805;28;20199;-50
2022/04/29 01:32:46;;;;;;;5.77;4.70;;;;;;;8.67;68.31;99537.41;5041784;28;20197;-50
2022/04/29 01:35:32;;;;;;;5.00;4.20;;;;;;;8.64;67.80;99537.63;5034123;28;20220;-50
2022/04/29 01:38:01;;;;;;;5.67;3.90;;;;;;;8.64;68.82;99537.63;5032502;28;20732;-51
2022/04/29 01:40:29;;;;;;;5.73;4.40;;;;;;;8.63;67.56;99538.56;5025023;28;20197;-50
2022/04/29 01:43:02;;;;;;;5.63;3.63;;;;;;;8.72;67.24;99537.06;5033086;28;20208;-53
2022/04/29 01:45:30;;;;;;;4.90;4.10;;;;;;;8.74;69.57;99534.34;5023336;28;20258;-50
2022/04/29 01:48:24;;;;;;;5.13;4.20;;;;;;;8.65;68.78;99526.28;5046644;28;20240;-50
2022/04/29 01:51:27;;;;;;;7.30;4.60;;;;;;;8.60;68.20;99532.78;5005893;28;20227;-51
2022/04/29 01:53:56;;;;;;;8.33;4.73;;;;;;;8.56;67.08;99530.41;5012905;28;20215;-52
2022/04/29 01:56:32;;;;;;;8.33;4.40;;;;;;;8.48;67.63;99534.53;5046501;28;20237;-52
2022/04/29 01:59:03;;;;;;;6.13;5.07;;;;;;;8.51;68.36;99524.72;5024779;28;20194;-50
2022/04/29 02:01:34;;;;;;;5.83;4.47;;;;;;;8.44;68.88;99527.88;5022690;28;20542;-51
2022/04/29 02:04:02;;;;;;;6.90;4.80;;;;;;;8.49;67.46;99534.44;5026494;28;20223;-51
2022/04/29 02:06:29;;;;;;;6.83;4.90;;;;;;;8.50;68.05;99528.28;5024497;28;20212;-50
2022/04/29 02:08:59;;;;;;;8.73;4.67;;;;;;;8.44;68.27;99526.09;5032886;28;20191;-50
2022/04/29 02:11:26;;;;;;;6.47;4.83;;;;;;;8.53;71.17;99522.84;5024564;28;20232;-52
2022/04/29 02:14:18;;;;;;;5.50;4.57;;;;;;;8.49;68.71;99524.00;5024199;28;20264;-50
2022/04/29 02:16:58;;;;;;;4.90;4.40;;;;;;;8.52;67.68;99520.34;5026317;28;20191;-51
2022/04/29 02:19:27;;;;;;;8.10;4.87;;;;;;;8.41;67.39;99523.72;5046584;28;20201;-50
2022/04/29 02:21:54;;;;;;;8.20;4.73;;;;;;;8.42;66.92;99517.59;5049251;28;20540;-54
2022/04/29 02:24:24;;;;;;;6.47;4.93;;;;;;;8.42;68.52;99509.78;5048755;28;20563;-50
2022/04/29 02:26:51;;;;;;;6.17;4.77;;;;;;;8.48;66.55;99509.31;5033741;28;20203;-50
2022/04/29 02:29:19;;;;;;;5.17;4.10;;;;;;;8.47;66.53;99510.25;5034094;28;20665;-50
2022/04/29 02:31:47;;;;;;;7.37;4.73;;;;;;;8.48;65.55;99506.72;5049191;28;20200;-51
2022/04/29 02:34:14;;;;;;;7.30;4.80;;;;;;;8.61;65.32;99511.03;5048597;28;20265;-50
2022/04/29 02:36:42;;;;;;;6.80;4.87;;;;;;;8.55;66.61;99512.31;5032377;28;20196;-51
2022/04/29 02:39:29;;;;;;;6.13;4.67;;;;;;;8.49;65.95;99502.34;5034369;28;20201;-51
2022/04/29 02:41:56;;;;;;;7.80;5.13;;;;;;;8.50;65.83;99499.66;5032384;28;20241;-50
2022/04/29 02:44:23;;;;;;;5.97;4.90;;;;;;;8.45;66.72;99493.94;5033288;28;20203;-51
2022/04/29 02:47:09;;;;;;;6.30;4.87;;;;;;;8.55;64.75;99500.13;5048690;28;20775;-50
2022/04/29 02:49:38;;;;;;;5.87;4.77;;;;;;;8.60;65.18;99502.38;5048807;28;20206;-51
2022/04/29 02:52:07;;;;;;;7.13;5.30;;;;;;;8.60;64.66;99499.78;5033360;28;20175;-50
2022/04/29 02:54:35;;;;;;;7.30;5.20;;;;;;;8.65;63.66;99502.84;5048467;28;20233;-50
2022/04/29 02:57:06;;;;;;;8.83;5.03;;;;;;;8.70;63.72;99495.53;5033205;28;20301;-53
2022/04/29 02:59:37;;;;;;;6.77;5.47;;;;;;;8.68;66.54;99496.59;5048656;28;20199;-50
2022/04/29 03:02:05;;;;;;;6.00;4.47;;;;;;;8.63;65.14;99490.91;5044928;28;20195;-51
2022/04/29 03:04:33;;;;;;;9.23;5.17;;;;;;;8.59;65.14;99492.09;5031099;28;20713;-51
2022/04/29 03:07:00;;;;;;;6.77;5.27;;;;;;;8.52;64.82;99494.31;5033162;28;20193;-50
2022/04/29 03:09:32;;;;;;;7.50;5.23;;;;;;;8.51;66.00;99490.06;5031242;28;20205;-50
2022/04/29 03:12:01;;;;;;;7.90;5.17;;;;;;;8.51;65.65;99487.47;5031416;28;20195;-50
2022/04/29 03:14:33;;;;;;;11.23;5.37;;;;;;;8.49;65.52;99498.00;5030962;28;20625;-50
2022/04/29 03:17:00;;;;;;;7.23;4.67;;;;;;;8.44;65.39;99497.47;5032864;28;20189;-50
2022/04/29 03:19:28;;;;;;;6.97;5.17;;;;;;;8.37;66.07;99493.69;5031251;28;20196;-50
2022/04/29 03:21:55;;;;;;;7.23;5.40;;;;;;;8.34;65.75;99494.75;5031287;28;20203;-50
2022/04/29 03:24:23;;;;;;;6.73;5.13;;;;;;;8.30;66.00;99493.31;5030867;28;20285;-50
2022/04/29 03:26:50;;;;;;;6.37;4.77;;;;;;;8.39;66.41;99489.19;5031355;28;20200;-50
2022/04/29 03:29:19;;;;;;;7.57;5.53;;;;;;;8.36;66.71;99489.41;5023374;28;20207;-51
2022/04/29 03:31:46;;;;;;;6.83;5.00;;;;;;;8.35;70.07;99499.00;5039849;28;20603;-50
2022/04/29 03:34:20;;;;;;;9.57;5.63;;;;;;;8.32;68.13;99494.03;5047385;28;20224;-50
2022/04/29 03:36:47;;;;;;;10.40;5.37;;;;;;;8.31;67.90;99494.97;5027368;28;20265;-51
2022/04/29 03:39:14;;;;;;;7.50;5.00;;;;;;;8.30;68.63;99501.13;5022886;28;20186;-50
2022/04/29 03:41:41;;;;;;;7.87;4.97;;;;;;;8.22;67.15;99499.09;5029669;28;20591;-50
2022/04/29 03:44:09;;;;;;;7.50;4.93;;;;;;;8.18;66.28;99502.03;5026821;28;20589;-50
2022/04/29 03:46:41;;;;;;;7.30;5.43;;;;;;;8.12;67.48;99504.16;5024999;28;20651;-51
2022/04/29 03:52:29;;;;;;;7.50;5.17;;;;;;;8.03;69.89;99506.59;5025384;28;20238;-53
2022/04/29 03:54:58;;;;;;;7.97;6.47;;;;;;;7.96;69.33;99499.22;5038851;28;20268;-52
2022/04/29 03:57:25;;;;;;;6.67;5.40;;;;;;;7.92;69.71;99495.22;5032136;28;20214;-51
2022/04/29 03:59:53;;;;;;;7.27;4.83;;;;;;;7.98;69.94;99493.94;5046843;28;20273;-50
2022/04/29 04:02:23;;;;;;;7.33;5.30;;;;;;;7.98;70.65;99494.75;5047360;28;20195;-50
2022/04/29 04:04:51;;;;;;;7.77;5.50;;;;;;;7.96;71.65;99498.41;5047047;28;20653;-50
2022/04/29 04:07:37;;;;;;;9.70;5.70;;;;;;;7.91;70.54;99496.16;5032509;28;20684;-52
2022/04/29 04:10:28;;;;;;;7.10;5.20;;;;;;;7.81;70.83;99497.78;5032866;28;20679;-54
2022/04/29 04:12:55;;;;;;;8.00;5.43;;;;;;;7.88;72.71;99495.53;5047203;28;20201;-51
2022/04/29 04:15:51;;;;;;;7.40;5.20;;;;;;;7.79;73.24;99497.88;5030580;28;20219;-50
2022/04/29 04:18:20;;;;;;;6.53;4.97;;;;;;;7.67;72.91;99493.56;5047260;28;20190;-52
2022/04/29 04:21:05;;;;;;;8.07;4.90;;;;;;;7.69;74.96;99491.69;5032270;28;20278;-50
2022/04/29 04:23:50;;;;;;;7.60;5.43;;;;;;;7.62;74.67;99486.09;5032270;28;20293;-51
2022/04/29 04:26:18;;;;;;;6.73;5.37;;;;;;;7.67;73.61;99488.38;5047239;28;20215;-50
2022/04/29 04:28:45;;;;;;;8.57;5.43;;;;;;;7.72;73.56;99491.47;5030560;28;20238;-50
2022/04/29 04:31:14;;;;;;;7.70;4.90;;;;;;;7.70;73.64;99485.53;5047366;28;20218;-50
2022/04/29 04:33:49;;;;;;;8.20;5.27;;;;;;;7.67;73.48;99483.16;5047064;28;20198;-51
2022/04/29 04:36:16;;;;;;;6.90;5.50;;;;;;;7.74;72.43;99486.16;5047325;28;20201;-50
2022/04/29 04:38:45;;;;;;;8.47;5.43;;;;;;;7.76;72.74;99494.69;5047439;28;20279;-50
2022/04/29 04:41:16;;;;;;;7.90;5.87;;;;;;;7.78;74.10;99501.41;5030723;28;20197;-50
2022/04/29 04:43:44;;;;;;;7.33;4.67;;;;;;;7.79;73.13;99505.66;5046789;28;20195;-50
2022/04/29 04:46:13;;;;;;;7.77;5.60;;;;;;;7.84;73.27;99500.16;5046940;28;20216;-50
2022/04/29 04:48:41;;;;;;;7.80;4.90;;;;;;;7.89;71.91;99507.59;5031874;28;20654;-53
2022/04/29 04:51:27;;;;;;;7.23;5.30;;;;;;;8.04;72.09;99505.63;5032164;28;20197;-51
2022/04/29 04:54:00;;;;;;;8.00;5.63;;;;;;;8.09;73.98;99508.72;5046776;28;20561;-51
2022/04/29 04:56:28;;;;;;;8.00;4.53;;;;;;;8.10;74.11;99508.63;5030346;28;20761;-50
2022/04/29 04:58:57;;;;;;;6.82;5.20;;;;;;;8.14;72.46;99504.03;5029821;28;20441;-50
2022/04/29 05:01:24;;;;;;;6.83;5.20;;;;;;;8.20;72.19;99510.56;5030352;28;20279;-50
2022/04/29 05:04:15;;;;;;;5.93;5.03;;;;;;;8.37;72.52;99504.94;5028177;28;20213;-50
2022/04/29 05:06:44;;;;;;;5.27;4.20;;;;;;;8.41;72.54;99513.31;5031518;28;20199;-51
2022/04/29 05:09:13;;;;;;;5.80;4.53;;;;;;;8.49;73.28;99510.16;5031320;28;20551;-52
2022/04/29 05:11:40;;;;;;;6.60;4.50;;;;;;;8.52;72.52;99510.78;5049322;28;20229;-51
2022/04/29 05:14:13;;;;;;;5.57;4.77;;;;;;;8.61;72.84;99516.22;5033810;28;20676;-51
2022/04/29 05:16:40;;;;;;;6.87;5.27;;;;;;;8.69;71.98;99522.50;5050349;28;20278;-50
2022/04/29 05:19:25;;;;;;;8.00;5.57;;;;;;;8.82;71.75;99526.78;5035032;28;20238;-50
2022/04/29 05:21:55;;;;;;;10.27;5.70;;;;;;;8.95;71.64;99524.09;5050338;28;20202;-52
2022/04/29 05:24:25;;;;;;;7.43;5.50;;;;;;;9.05;71.11;99518.97;5033630;28;20638;-50
2022/04/29 05:27:11;;;;;;;6.43;4.90;;;;;;;9.19;70.98;99523.94;5035244;28;20205;-53
2022/04/29 05:29:57;;;;;;;7.53;5.90;;;;;;;9.36;70.16;99532.22;5034681;28;20221;-50
2022/04/29 05:32:43;;;;;;;9.60;5.40;;;;;;;9.42;71.25;99526.53;5034914;28;20201;-50
2022/04/29 05:35:30;;;;;;;6.70;4.87;;;;;;;9.60;71.66;99532.88;5034610;28;20339;-52
2022/04/29 05:38:22;;;;;;;10.53;5.53;;;;;;;9.82;71.39;99541.56;5031716;28;20195;-50
2022/04/29 05:43:35;;;;;;;6.23;4.67;;;;;;;10.04;72.24;99537.25;5049773;28;20231;-50
2022/04/29 05:46:02;;;;;;;13.90;10.77;;;;;;;10.15;68.71;99534.59;5034419;28;20202;-50
2022/04/29 05:48:30;;;;;;;45.90;24.47;;;;;;;10.31;67.58;99538.56;5033276;28;20299;-53
2022/04/29 05:51:15;;;;;;;23.17;13.17;;;;;;;10.56;67.04;99555.63;5035261;28;20234;-50
2022/04/29 05:53:44;;;;;;;13.47;7.13;;;;;;;10.78;69.52;99557.28;5032753;28;20262;-50
2022/04/29 05:56:12;;;;;;;10.60;6.47;;;;;;;10.95;68.90;99555.03;5049671;28;20684;-50
2022/04/29 05:58:40;;;;;;;10.70;7.53;;;;;;;11.07;70.18;99556.59;5033053;28;20586;-50
2022/04/29 06:01:27;;;;;;;10.10;6.03;;;;;;;11.27;68.55;99561.91;5033758;28;20862;-50
2022/04/29 06:03:54;;;;;;;10.27;5.73;;;;;;;11.40;68.28;99555.63;5049229;28;20304;-50
2022/04/29 06:06:21;;;;;;;5.80;4.70;;;;;;;11.57;68.57;99559.38;5049745;28;20189;-50
2022/04/29 06:08:50;;;;;;;6.13;4.80;;;;;;;11.81;65.20;99556.38;5032974;28;20696;-50
2022/04/29 06:11:17;;;;;;;6.60;4.60;;;;;;;11.93;65.90;99552.66;5032826;28;20259;-50
2022/04/29 06:13:45;;;;;;;8.83;6.17;;;;;;;12.10;64.87;99548.59;5047126;28;20202;-50
2022/04/29 06:16:38;;;;;;;9.00;6.10;;;;;;;12.34;63.88;99551.72;5033244;28;20208;-50
2022/04/29 06:19:09;;;;;;;8.43;5.57;;;;;;;12.43;64.13;99553.53;5033951;28;20190;-50
2022/04/29 06:21:56;;;;;;;6.37;5.00;;;;;;;12.61;62.93;99551.00;5026304;28;20226;-50
2022/04/29 06:24:25;;;;;;;8.83;5.47;;;;;;;12.61;61.61;99548.38;5014994;28;20211;-49
2022/04/29 06:26:52;;;;;;;8.77;5.53;;;;;;;12.79;61.80;99539.78;5012785;28;20639;-50
2022/04/29 06:29:19;;;;;;;9.73;5.80;;;;;;;12.78;63.10;99546.81;5029234;28;20582;-49
2022/04/29 06:31:46;;;;;;;10.03;5.60;;;;;;;12.94;62.90;99542.75;5012797;28;20194;-50
2022/04/29 06:34:33;;;;;;;8.73;6.13;;;;;;;13.08;62.33;99551.97;5013750;28;20578;-50
2022/04/29 06:37:00;;;;;;;9.20;5.97;;;;;;;13.09;62.85;99558.88;5029041;28;20199;-50
2022/04/29 06:39:32;;;;;;;7.67;5.53;;;;;;;13.22;61.00;99548.88;5029079;28;20182;-50
2022/04/29 06:42:17;;;;;;;6.57;5.70;;;;;;;13.11;61.93;99547.25;5013849;28;20245;-50
2022/04/29 06:45:03;;;;;;;9.37;5.97;;;;;;;13.27;62.90;99546.63;5013318;28;20311;-51
2022/04/29 06:47:53;;;;;;;8.43;5.40;;;;;;;13.30;60.98;99548.13;5013670;28;20717;-52
2022/04/29 06:50:39;;;;;;;11.37;7.13;;;;;;;13.60;62.43;99540.13;5013710;28;20264;-50
2022/04/29 06:53:36;;;;;;;10.67;7.30;;;;;;;13.53;62.02;99540.72;4995315;28;20221;-50
2022/04/29 06:56:05;;;;;;;8.97;6.30;;;;;;;13.62;62.27;99546.06;5034398;22;20192;-49
2022/04/29 06:58:34;;;;;;;13.70;6.07;;;;;;;13.80;62.21;99546.06;5071448;28;20565;-51
2022/04/29 07:01:00;;;;;;;10.70;6.23;;;;;;;13.73;62.63;99533.56;5057063;22;20412;-48
2022/04/29 07:03:27;;;;;;;9.30;6.87;;;;;;;13.69;60.89;99547.13;5051334;28;20192;-51
2022/04/29 07:05:55;;;;;;;8.37;6.43;;;;;;;13.80;61.50;99541.66;5051624;28;20772;-48
2022/04/29 07:08:23;;;;;;;8.97;7.13;;;;;;;13.87;59.69;99534.84;5030889;28;20198;-49
2022/04/29 07:11:27;;;;;;;7.70;6.57;;;;;;;13.84;59.24;99537.75;5023953;28;20787;-51
2022/04/29 07:14:12;;;;;;;10.10;6.60;;;;;;;13.92;59.62;99534.38;5056938;22;20213;-49
2022/04/29 07:16:59;;;;;;;9.87;6.80;;;;;;;13.82;61.59;99531.84;5025755;28;20284;-49
2022/04/29 07:19:37;;;;;;;9.93;6.67;;;;;;;13.95;59.88;99535.88;5014944;28;20217;-49
2022/04/29 07:22:05;;;;;;;8.20;6.90;;;;;;;13.93;59.78;99522.91;5015038;28;20198;-48
2022/04/29 07:24:35;;;;;;;19.43;10.40;;;;;;;13.82;59.27;99528.38;5014675;28;20575;-49
2022/04/29 07:27:03;;;;;;;108.00;47.53;;;;;;;13.72;59.91;99531.91;5032958;28;20183;-49
2022/04/29 07:29:30;;;;;;;13.20;8.67;;;;;;;13.79;59.90;99531.28;5015071;28;20221;-50
2022/04/29 07:32:02;;;;;;;10.17;7.20;;;;;;;13.92;61.23;99528.31;5015030;28;20241;-49
2022/04/29 07:43:12;;;;;;;37.23;17.80;;;;;;;13.78;60.21;99530.47;5014637;28;20196;-49
2022/04/29 07:45:59;;;;;;;11.20;8.33;;;;;;;14.00;60.26;99533.63;5032654;28;20198;-49
2022/04/29 07:48:26;;;;;;;13.30;8.63;;;;;;;14.09;59.71;99532.72;5032601;28;20194;-49
2022/04/29 07:51:11;;;;;;;8.60;6.23;;;;;;;14.58;58.76;99534.91;5032809;28;20198;-49
2022/04/29 07:53:38;;;;;;;8.80;6.13;;;;;;;14.68;58.67;99533.97;5014202;28;20221;-50
2022/04/29 07:56:06;;;;;;;11.83;6.70;;;;;;;14.96;56.77;99541.69;5032196;28;20193;-49
2022/04/29 07:58:38;;;;;;;14.03;7.33;;;;;;;15.20;57.54;99536.53;5014638;28;20213;-49
2022/04/29 08:01:09;;;;;;;10.70;7.30;;;;;;;15.82;55.79;99539.03;5014457;28;20201;-50
2022/04/29 08:03:40;;;;;;;8.53;6.10;;;;;;;16.11;52.79;99537.75;5014215;28;20659;-50
2022/04/29 08:06:13;;;;;;;7.17;5.67;;;;;;;16.34;52.63;99532.66;5014382;28;20192;-52
2022/04/29 08:08:40;;;;;;;7.93;5.50;;;;;;;16.16;54.82;99532.81;5032222;28;20270;-52
2022/04/29 08:11:08;;;;;;;7.67;5.40;;;;;;;16.30;53.80;99534.78;5031900;28;20190;-50
2022/04/29 08:13:52;;;;;;;5.80;5.20;;;;;;;16.73;51.77;99537.19;5030329;28;20258;-48
2022/04/29 08:16:48;;;;;;;8.80;5.73;;;;;;;16.88;50.93;99532.06;5032009;28;20251;-49
2022/04/29 08:19:24;;;;;;;6.40;5.17;;;;;;;16.60;51.54;99524.53;5014440;28;20682;-52
2022/04/29 08:22:02;;;;;;;6.93;4.50;;;;;;;16.80;48.98;99521.53;5014290;28;20254;-50
2022/04/29 08:24:30;;;;;;;8.57;5.27;;;;;;;16.69;48.46;99530.59;5013852;28;20222;-50
2022/04/29 08:26:57;;;;;;;5.90;4.83;;;;;;;17.23;48.38;99523.88;5014146;28;20545;-49
2022/04/29 08:29:26;;;;;;;5.50;4.33;;;;;;;17.25;47.71;99529.78;5014213;28;20222;-49
2022/04/29 08:31:53;;;;;;;4.90;4.10;;;;;;;17.51;47.09;99534.78;5014264;28;20580;-49
2022/04/29 08:34:21;;;;;;;6.10;3.77;;;;;;;17.59;35.97;99525.97;5013957;28;20243;-49
2022/04/29 08:36:49;;;;;;;4.30;3.47;;;;;;;17.82;36.44;99526.00;5014188;28;20219;-52
2022/04/29 08:39:17;;;;;;;4.13;2.90;;;;;;;17.81;38.85;99532.28;5014167;28;20188;-52
2022/04/29 08:41:44;;;;;;;4.53;3.80;;;;;;;17.81;35.21;99512.97;5013682;28;20197;-49
2022/04/29 08:44:18;;;;;;;4.83;4.13;;;;;;;17.33;32.86;99521.00;5030200;28;20252;-50
2022/04/29 08:46:54;;;;;;;5.47;4.00;;;;;;;17.22;34.15;99528.31;5017023;28;20398;-49
2022/04/29 08:49:40;;;;;;;6.13;3.77;;;;;;;17.59;33.77;99514.59;5035609;28;20233;-50
2022/04/29 08:52:09;;;;;;;5.40;3.63;;;;;;;17.89;35.23;99520.81;5034904;28;20197;-49
2022/04/29 09:00:24;;;;;;;6.63;3.90;;;;;;;18.01;34.13;99521.28;5017660;28;20194;-50
2022/04/29 09:02:53;;;;;;;7.10;3.77;;;;;;;17.80;34.58;99521.88;5035581;28;20225;-50
2022/04/29 09:05:21;;;;;;;6.33;3.97;;;;;;;17.92;34.26;99524.94;5035160;28;20691;-50
2022/04/29 09:08:00;;;;;;;4.47;3.73;;;;;;;18.01;33.79;99516.00;5035446;28;20538;-51
2022/04/29 09:10:29;;;;;;;8.10;4.10;;;;;;;18.27;34.21;99518.25;5035258;28;20201;-49
2022/04/29 09:12:56;;;;;;;6.10;3.27;;;;;;;18.78;35.07;99518.56;5035306;28;20194;-49
2022/04/29 09:15:24;;;;;;;40.23;8.30;;;;;;;19.09;32.87;99520.19;5019791;28;20220;-51
2022/04/29 09:17:51;;;;;;;6.43;3.90;;;;;;;19.63;31.22;99521.63;5045635;28;20240;-49
2022/04/29 09:20:21;;;;;;;5.63;3.60;;;;;;;19.57;33.45;99509.97;5044000;28;20192;-49
2022/04/29 09:22:50;;;;;;;5.70;3.43;;;;;;;19.03;32.19;99511.19;5044648;28;20184;-49
2022/04/29 09:25:37;;;;;;;3.63;3.20;;;;;;;19.60;32.74;99511.44;5045106;28;21004;-50
2022/04/29 09:28:30;;;;;;;5.20;3.43;;;;;;;19.76;28.95;99507.72;5029269;28;20197;-50
2022/04/29 09:31:11;;;;;;;9.00;4.57;;;;;;;19.48;32.02;99519.03;5014782;28;20219;-51
2022/04/29 09:33:55;;;;;;;5.47;3.30;;;;;;;19.77;31.60;99517.31;5025534;28;20215;-49
2022/04/29 09:36:43;;;;;;;8.87;3.73;;;;;;;19.22;31.52;99517.72;5033831;28;20210;-49
2022/04/29 09:39:30;;;;;;;4.30;3.20;;;;;;;19.77;32.66;99510.16;5034907;28;20202;-49
2022/04/29 09:41:57;;;;;;;4.40;3.00;;;;;;;20.01;29.91;99512.66;5017051;28;20206;-50
2022/04/29 09:44:28;;;;;;;3.73;3.03;;;;;;;19.52;29.67;99501.78;5033664;28;20812;-50
2022/04/29 09:46:56;;;;;;;3.93;3.47;;;;;;;19.87;29.22;99506.38;5034159;28;20241;-50
2022/04/29 09:49:27;;;;;;;4.73;3.30;;;;;;;19.83;30.17;99495.34;5021742;28;20210;-53
2022/04/29 09:51:55;;;;;;;5.73;3.33;;;;;;;19.40;31.17;99500.63;5026026;28;20198;-48
2022/04/29 09:54:25;;;;;;;5.23;3.30;;;;;;;19.05;32.32;99500.44;5011544;28;20302;-49
2022/04/29 09:57:10;;;;;;;5.77;3.63;;;;;;;19.31;32.74;99499.91;5032567;28;20221;-49
2022/04/29 09:59:39;;;;;;;6.00;3.53;;;;;;;19.49;30.97;99493.41;5033409;28;20276;-49
2022/04/29 10:02:07;;;;;;;4.70;3.20;;;;;;;19.36;30.72;99488.75;5033338;28;20197;-51
2022/04/29 10:04:36;;;;;;;4.37;3.00;;;;;;;18.95;30.95;99493.56;5032744;28;20296;-52
2022/04/29 10:07:05;;;;;;;4.10;3.33;;;;;;;19.17;32.31;99486.53;5033476;28;20563;-50
2022/04/29 10:09:33;;;;;;;4.97;3.00;;;;;;;19.42;33.12;99490.66;5025152;28;20218;-49
2022/04/29 10:12:02;;;;;;;5.17;3.17;;;;;;;19.05;33.11;99481.91;5031102;28;20189;-48
2022/04/29 10:14:35;;;;;;;5.13;2.67;;;;;;;19.37;31.68;99472.69;5028015;28;20225;-48
2022/04/29 10:23:06;;;;;;;5.10;3.70;;;;;;;18.60;34.00;99469.50;5032993;28;20586;-51
2022/04/29 10:25:34;;;;;;;5.50;3.53;;;;;;;18.64;35.23;99469.94;5033386;28;20197;-49
2022/04/29 10:28:02;;;;;;;5.30;3.33;;;;;;;18.59;33.19;99473.16;5033717;28;20190;-51
2022/04/29 10:30:31;;;;;;;6.00;3.43;;;;;;;19.00;32.54;99469.22;5033773;28;20222;-50
2022/04/29 10:33:07;;;;;;;3.50;2.70;;;;;;;19.51;33.73;99472.84;5033823;28;20192;-49
2022/04/29 10:35:49;;;;;;;4.50;3.20;;;;;;;20.00;31.48;99477.38;5032140;28;20687;-50
2022/04/29 10:38:19;;;;;;;4.77;2.80;;;;;;;19.27;31.17;99474.84;5032075;28;20240;-50
2022/04/29 10:40:48;;;;;;;5.53;3.23;;;;;;;19.91;31.47;99482.00;5033791;28;20647;-50
2022/04/29 10:43:18;;;;;;;6.83;3.50;;;;;;;19.69;30.35;99475.84;5033591;28;20190;-49
2022/04/29 10:46:30;;;;;;;4.10;3.70;;;;;;;19.61;31.51;99468.03;5033051;28;20244;-49
2022/04/29 10:49:21;;;;;;;7.07;3.70;;;;;;;20.03;29.62;99458.44;5033380;28;20568;-49
2022/04/29 10:52:24;;;;;;;3.70;3.30;;;;;;;20.03;30.65;99463.75;5033319;28;20596;-50
2022/04/29 10:55:24;;;;;;;7.07;3.40;;;;;;;19.86;32.13;99455.22;5031795;28;20213;-49
2022/04/29 10:58:20;;;;;;;4.40;3.43;;;;;;;20.11;30.66;99448.72;5025936;28;20231;-49
2022/04/29 11:00:55;;;;;;;4.87;3.30;;;;;;;20.87;29.69;99452.44;5031642;28;20281;-50
2022/04/29 11:03:37;;;;;;;5.50;3.20;;;;;;;21.23;28.38;99448.66;5031290;28;20573;-49
2022/04/29 11:06:09;;;;;;;4.83;3.27;;;;;;;21.53;27.84;99443.00;5033055;28;20190;-49
2022/04/29 11:08:35;;;;;;;3.83;3.13;;;;;;;21.69;28.37;99444.50;5031370;28;20751;-49
2022/04/29 11:11:04;;;;;;;3.53;2.70;;;;;;;21.63;31.13;99442.66;5032861;28;20212;-50
2022/04/29 11:14:03;;;;;;;4.47;2.93;;;;;;;21.92;29.01;99438.75;5009764;28;20703;-50
2022/04/29 11:17:10;;;;;;;3.90;2.40;;;;;;;22.30;27.97;99439.09;5032796;28;20334;-49
2022/04/29 11:19:47;;;;;;;5.40;2.70;;;;;;;22.46;29.09;99432.56;5031825;28;20185;-50
2022/04/29 11:25:05;;;;;;;4.03;2.47;;;;;;;22.03;29.94;99426.69;5032433;28;20223;-51
2022/04/29 11:27:43;;;;;;;2.50;2.27;;;;;;;22.42;28.04;99429.47;5031525;28;20204;-49
2022/04/29 11:30:15;;;;;;;5.37;2.40;;;;;;;22.63;28.28;99427.59;5031341;28;20205;-52
2022/04/29 11:32:48;;;;;;;2.70;2.23;;;;;;;22.03;27.18;99415.25;5032359;28;20193;-49
2022/04/29 11:35:15;;;;;;;5.40;3.40;;;;;;;22.44;29.60;99419.47;5032315;28;20210;-49
2022/04/29 11:37:41;;;;;;;5.40;2.87;;;;;;;22.59;27.18;99413.91;5032463;28;20658;-50
2022/04/29 11:40:10;;;;;;;5.73;2.70;;;;;;;22.00;27.26;99405.03;5032502;28;20646;-51
2022/04/29 11:42:37;;;;;;;2.90;2.50;;;;;;;22.63;28.06;99404.47;5032457;28;20181;-49
2022/04/29 11:45:07;;;;;;;4.53;2.47;;;;;;;22.26;29.09;99393.50;5031911;28;20212;-51
2022/04/29 11:47:36;;;;;;;4.43;2.40;;;;;;;22.25;28.22;99394.53;5030694;28;20243;-50
2022/04/29 11:50:06;;;;;;;4.50;2.70;;;;;;;21.93;27.52;99379.28;5032209;28;20211;-50
2022/04/29 11:52:36;;;;;;;5.50;2.50;;;;;;;22.66;27.59;99380.09;5030983;28;20264;-51
2022/04/29 11:55:05;;;;;;;4.73;2.37;;;;;;;22.77;30.29;99377.81;5031956;28;20283;-49
2022/04/29 11:57:34;;;;;;;3.20;2.60;;;;;;;22.42;27.16;99373.59;5032069;28;20251;-53
2022/04/29 12:00:07;;;;;;;3.07;2.50;;;;;;;22.25;28.57;99365.28;5030962;28;20269;-50
2022/04/29 12:02:46;;;;;;;5.10;2.40;;;;;;;21.86;28.85;99356.38;5032358;28;20227;-51
2022/04/29 12:05:15;;;;;;;2.50;2.30;;;;;;;21.62;27.57;99361.28;5030622;28;20723;-50
2022/04/29 12:08:01;;;;;;;3.13;2.13;;;;;;;21.99;28.51;99360.84;5032271;28;20190;-49
2022/04/29 12:10:50;;;;;;;5.40;2.47;;;;;;;21.95;28.38;99353.28;5030697;28;20592;-49
2022/04/29 12:13:21;;;;;;;2.70;2.13;;;;;;;21.60;27.38;99355.34;5032160;28;20181;-50
2022/04/29 12:15:56;;;;;;;2.20;2.00;;;;;;;22.08;28.10;99354.28;5030657;28;20214;-48
2022/04/29 12:18:41;;;;;;;4.30;2.40;;;;;;;22.30;28.82;99348.69;5032036;28;20259;-49
2022/04/29 12:21:09;;;;;;;3.03;2.07;;;;;;;22.67;27.20;99348.97;5031145;28;20197;-50
2022/04/29 12:23:37;;;;;;;4.43;2.23;;;;;;;22.47;26.98;99343.75;5030456;28;20200;-49
2022/04/29 12:26:07;;;;;;;3.33;2.20;;;;;;;22.60;27.47;99340.22;5031911;28;20186;-48
2022/04/29 12:28:37;;;;;;;3.70;2.30;;;;;;;22.54;25.13;99344.53;5030479;28;20198;-48
2022/04/29 12:36:48;;;;;;;2.40;2.20;;;;;;;21.69;28.33;99332.91;5030587;28;20199;-48
2022/04/29 12:39:20;;;;;;;3.30;2.60;;;;;;;21.37;28.02;99330.81;5030530;28;20205;-48